createdAt,value
2023-01-02T00:01:25.563Z,17.65
2023-01-02T00:06:27.362Z,14.70
2023-01-02T00:11:29.190Z,10.45
2023-01-02T00:16:31.014Z,11.00
2023-01-02T00:21:32.827Z,7.18
2023-01-02T00:26:36.234Z,6.38
2023-01-02T00:31:38.071Z,4.38
2023-01-02T00:36:39.872Z,5.30
2023-01-02T00:41:41.621Z,4.93
2023-01-02T00:46:43.436Z,5.80
2023-01-02T00:51:45.233Z,7.43
2023-01-02T00:56:47.079Z,7.65
2023-01-02T01:01:48.964Z,7.72
2023-01-02T01:06:50.897Z,8.45
2023-01-02T01:11:52.813Z,9.05
2023-01-02T01:16:54.659Z,9.65
2023-01-02T01:21:56.434Z,9.13
2023-01-02T01:26:58.393Z,9.68
2023-01-02T01:32:00.271Z,9.38
2023-01-02T01:37:02.147Z,10.57
2023-01-02T01:42:04.052Z,9.50
2023-01-02T01:47:09.744Z,10.45
2023-01-02T01:52:16.106Z,10.55
2023-01-02T01:57:27.198Z,11.10
2023-01-02T02:02:31.672Z,10.60
2023-01-02T02:07:37.885Z,10.15
2023-01-02T02:12:39.812Z,9.93
2023-01-02T02:17:56.541Z,10.35
2023-01-02T02:23:19.857Z,11.18
2023-01-02T02:28:40.354Z,10.38
2023-01-02T02:33:52.501Z,10.18
2023-01-02T02:39:15.978Z,9.65
2023-01-02T02:44:26.018Z,10.15
2023-01-02T02:49:35.235Z,9.95
2023-01-02T02:54:57.070Z,10.50
2023-01-02T02:59:59.084Z,11.15
2023-01-02T03:05:05.247Z,10.77
2023-01-02T03:10:16.261Z,10.27
2023-01-02T03:15:51.649Z,10.48
2023-01-02T03:21:00.537Z,10.90
2023-01-02T03:26:05.016Z,10.20
2023-01-02T03:31:12.339Z,10.52
2023-01-02T03:36:20.069Z,11.05
2023-01-02T03:41:25.728Z,10.88
2023-01-02T03:46:41.892Z,10.88
2023-01-02T03:51:43.784Z,9.82
2023-01-02T03:56:59.771Z,10.63
2023-01-02T04:02:07.313Z,10.35
2023-01-02T04:07:15.256Z,10.07
2023-01-02T04:12:20.760Z,10.00
2023-01-02T04:17:24.506Z,10.10
2023-01-02T04:22:42.634Z,10.48
2023-01-02T04:27:53.268Z,9.95
2023-01-02T04:32:57.708Z,9.40
2023-01-02T04:38:06.998Z,9.63
2023-01-02T04:43:19.398Z,9.23
2023-01-02T04:48:21.267Z,8.85
2023-01-02T04:53:23.106Z,9.32
2023-01-02T04:58:26.836Z,8.90
2023-01-02T05:03:28.672Z,9.35
2023-01-02T05:08:30.507Z,8.38
2023-01-02T05:13:32.804Z,8.80
2023-01-02T05:18:34.788Z,9.07
2023-01-02T05:23:48.774Z,8.73
2023-01-02T05:28:52.888Z,8.48
2023-01-02T05:33:56.369Z,8.10
2023-01-02T05:38:59.224Z,7.90
2023-01-02T05:44:01.086Z,7.82
2023-01-02T05:49:10.476Z,8.38
2023-01-02T05:54:12.341Z,7.22
2023-01-02T05:59:15.001Z,8.27
2023-01-02T06:04:19.832Z,8.13
2023-01-02T06:09:21.856Z,8.65
2023-01-02T06:14:25.321Z,8.10
2023-01-02T06:19:27.109Z,9.90
2023-01-02T06:24:28.905Z,8.43
2023-01-02T06:29:30.684Z,8.65
2023-01-02T06:34:32.459Z,9.10
2023-01-02T06:39:34.240Z,8.43
2023-01-02T06:44:36.049Z,9.05
2023-01-02T06:49:37.890Z,8.95
2023-01-02T06:54:39.659Z,8.30
2023-01-02T06:59:41.524Z,9.55
2023-01-02T07:04:43.285Z,9.82
2023-01-02T07:09:45.102Z,9.38
2023-01-02T07:14:48.152Z,9.90
2023-01-02T07:19:53.485Z,10.05
2023-01-02T07:24:57.121Z,10.05
2023-01-02T07:29:58.963Z,11.40
2023-01-02T07:35:00.741Z,11.63
2023-01-02T07:40:02.675Z,11.10
2023-01-02T07:45:05.007Z,10.90
2023-01-02T07:50:07.075Z,10.32
2023-01-02T07:55:09.324Z,11.10
2023-01-02T08:00:12.019Z,11.32
2023-01-02T08:05:13.777Z,11.15
2023-01-02T08:10:15.721Z,11.05
2023-01-02T08:15:17.570Z,10.95
2023-01-02T08:20:19.353Z,11.13
2023-01-02T08:25:21.163Z,12.02
2023-01-02T08:30:23.008Z,10.40
2023-01-02T08:35:37.397Z,11.48
2023-01-02T08:40:40.006Z,11.23
2023-01-02T08:45:42.145Z,11.57
2023-01-02T08:50:44.279Z,11.90
2023-01-02T08:55:46.429Z,11.25
2023-01-02T09:00:48.255Z,10.60
2023-01-02T09:05:50.039Z,10.93
2023-01-02T09:10:52.996Z,11.00
2023-01-02T09:15:54.934Z,12.13
2023-01-02T09:20:56.782Z,11.75
2023-01-02T09:26:05.055Z,11.18
2023-01-02T09:31:12.087Z,11.82
2023-01-02T09:36:16.893Z,11.23
2023-01-02T09:41:21.673Z,11.35
2023-01-02T09:46:46.441Z,11.27
2023-01-02T09:51:50.056Z,11.30
2023-01-02T09:57:21.992Z,10.77
2023-01-02T10:02:45.002Z,10.45
2023-01-02T10:07:55.844Z,11.15
2023-01-02T10:13:44.257Z,11.25
2023-01-02T10:18:51.444Z,11.10
2023-01-02T10:24:08.125Z,11.55
2023-01-02T10:29:22.031Z,12.15
2023-01-02T10:34:24.341Z,12.55
2023-01-02T10:39:30.632Z,12.52
2023-01-02T10:44:40.035Z,12.05
2023-01-02T10:49:43.980Z,13.20
2023-01-02T10:54:59.454Z,13.45
2023-01-02T11:00:04.747Z,11.88
2023-01-02T11:05:18.492Z,12.23
2023-01-02T11:10:33.210Z,11.98
2023-01-02T11:15:43.923Z,11.30
2023-01-02T11:20:51.394Z,12.77
2023-01-02T11:25:54.396Z,12.63
2023-01-02T11:31:05.368Z,11.50
2023-01-02T11:36:13.242Z,13.00
2023-01-02T11:42:16.875Z,11.35
2023-01-02T11:47:27.356Z,12.35
2023-01-02T11:53:01.545Z,12.55
2023-01-02T11:58:30.659Z,12.70
2023-01-02T12:03:33.437Z,11.77
2023-01-02T12:08:41.998Z,12.23
2023-01-02T12:13:53.120Z,12.75
2023-01-02T12:19:07.078Z,11.50
2023-01-02T12:24:35.654Z,12.40
2023-01-02T12:29:55.893Z,12.65
2023-01-02T12:35:24.995Z,18.05
2023-01-02T12:40:56.063Z,65.35
2023-01-02T12:46:07.404Z,14.20
2023-01-02T12:51:21.262Z,12.38
2023-01-02T12:56:33.224Z,13.95
2023-01-02T13:02:16.621Z,15.35
2023-01-02T13:07:30.702Z,13.07
2023-01-02T13:12:35.814Z,13.20
2023-01-02T13:17:49.779Z,11.98
2023-01-02T13:23:12.590Z,13.65
2023-01-02T13:28:15.333Z,13.13
2023-01-02T13:33:23.170Z,14.98
2023-01-02T13:38:29.143Z,15.18
2023-01-02T13:43:34.508Z,15.25
2023-01-02T13:48:45.788Z,13.15
2023-01-02T13:53:50.829Z,13.05
2023-01-02T13:58:56.653Z,12.45
2023-01-02T14:04:07.623Z,14.05
2023-01-02T14:09:16.384Z,13.95
2023-01-02T14:14:44.848Z,26.55
2023-01-02T14:19:46.778Z,13.05
2023-01-02T14:24:51.476Z,13.02
2023-01-02T14:30:13.593Z,17.30
2023-01-02T14:35:15.629Z,13.52
2023-01-02T14:40:23.519Z,13.85
2023-01-02T14:45:28.262Z,18.13
2023-01-02T14:50:34.442Z,24.15
2023-01-02T14:55:42.345Z,13.23
2023-01-02T15:00:47.692Z,13.10
2023-01-02T15:05:56.464Z,12.27
2023-01-02T15:11:22.283Z,13.88
2023-01-02T15:16:24.646Z,11.85
2023-01-02T15:21:29.731Z,12.00
2023-01-02T15:26:34.800Z,12.45
2023-01-02T15:31:39.217Z,12.85
2023-01-02T15:36:42.523Z,12.63
2023-01-02T15:41:49.213Z,12.00
2023-01-02T15:46:51.248Z,11.93
2023-01-02T15:51:55.135Z,11.35
2023-01-02T15:57:05.832Z,12.02
2023-01-02T16:02:32.012Z,12.70
2023-01-02T16:07:38.210Z,12.43
2023-01-02T16:12:40.053Z,12.10
2023-01-02T16:17:46.073Z,13.77
2023-01-02T16:23:02.249Z,13.30
2023-01-02T16:28:34.736Z,13.82
2023-01-02T16:33:37.817Z,13.27
2023-01-02T16:39:00.777Z,12.98
2023-01-02T16:44:16.516Z,12.13
2023-01-02T16:49:21.486Z,11.15
2023-01-02T16:54:23.341Z,10.43
2023-01-02T16:59:25.167Z,10.55
2023-01-02T17:04:26.975Z,12.25
2023-01-02T17:09:29.226Z,12.07
2023-01-02T17:14:33.084Z,12.82
2023-01-02T17:19:35.598Z,13.02
2023-01-02T17:24:37.459Z,14.63
2023-01-02T17:29:39.335Z,11.65
2023-01-02T17:34:41.163Z,13.60
2023-01-02T17:39:44.080Z,10.80
2023-01-02T17:44:46.480Z,11.23
2023-01-02T17:49:48.378Z,11.88
2023-01-02T17:54:56.364Z,10.45
2023-01-02T17:59:58.635Z,11.82
2023-01-02T18:05:00.510Z,10.43
2023-01-02T18:10:07.920Z,11.27
2023-01-02T18:15:14.032Z,10.85
2023-01-02T18:20:21.220Z,10.45
2023-01-02T18:25:27.311Z,10.23
2023-01-02T18:30:29.664Z,9.35
2023-01-02T18:40:55.321Z,12.38
2023-01-02T18:46:00.155Z,11.20
2023-01-02T18:51:02.884Z,8.68
2023-01-02T18:56:25.767Z,8.25
2023-01-02T19:01:50.337Z,8.90
2023-01-02T19:06:55.999Z,9.32
2023-01-02T19:12:32.476Z,9.73
2023-01-02T19:17:35.419Z,8.02
2023-01-02T19:22:37.796Z,11.15
2023-01-02T19:27:39.739Z,11.15
2023-01-02T19:32:41.634Z,8.48
2023-01-02T19:37:45.799Z,7.53
2023-01-02T19:42:49.414Z,10.70
2023-01-02T19:47:52.183Z,8.13
2023-01-02T19:52:54.352Z,12.23
2023-01-02T19:57:56.179Z,8.43
2023-01-02T20:02:58.171Z,3.10
2023-01-02T20:08:00.668Z,3.83
2023-01-02T20:13:02.487Z,2.88
2023-01-02T20:18:08.871Z,1.73
2023-01-02T20:23:11.019Z,2.67
2023-01-02T20:28:12.801Z,1.40
2023-01-02T20:33:14.697Z,1.80
2023-01-02T20:38:16.535Z,2.33
2023-01-02T20:43:18.366Z,1.63
2023-01-02T20:48:20.529Z,1.48
2023-01-02T20:53:22.291Z,2.40
2023-01-02T20:58:26.052Z,2.20
2023-01-02T21:03:27.978Z,2.35
2023-01-02T21:08:29.938Z,2.45
2023-01-02T21:13:32.019Z,3.63
2023-01-02T21:18:36.543Z,3.28
2023-01-02T21:23:40.326Z,3.03
2023-01-02T21:28:47.504Z,2.50
2023-01-02T21:33:50.288Z,1.80
2023-01-02T21:38:52.149Z,1.90
2023-01-02T21:43:53.960Z,1.60
2023-01-02T21:48:55.815Z,2.45
2023-01-02T21:53:57.701Z,1.60
2023-01-02T21:59:00.153Z,2.08
2023-01-02T22:04:02.199Z,1.33
2023-01-02T22:09:04.243Z,2.15
2023-01-02T22:14:06.079Z,4.07
2023-01-02T22:19:08.049Z,2.05
2023-01-02T22:24:09.995Z,2.08
2023-01-02T22:29:13.464Z,2.03
2023-01-02T22:34:18.119Z,1.48
2023-01-02T22:39:28.757Z,1.10
2023-01-02T22:44:30.998Z,1.50
2023-01-02T22:49:36.940Z,0.93
2023-01-02T22:54:39.265Z,1.10
2023-01-02T22:59:41.710Z,1.00
2023-01-02T23:04:43.645Z,1.00
2023-01-02T23:09:45.660Z,1.45
2023-01-02T23:14:47.636Z,1.35
2023-01-02T23:19:49.790Z,1.45
2023-01-02T23:24:51.740Z,1.45
2023-01-02T23:29:53.536Z,1.40
2023-01-02T23:34:55.329Z,1.38
2023-01-02T23:39:57.291Z,1.58
2023-01-02T23:44:59.666Z,2.47
2023-01-02T23:50:01.736Z,2.15
2023-01-02T23:55:03.857Z,2.20
